sensor_id;sensor_type;location;lat;lon;timestamp;pressure;altitude;pressure_sealevel;temperature;humidity
45872;BME280;32333;55.844;-3.210;2023-07-13T00:01:53;98889.12;;;11.05;100.00
45872;BME280;32333;55.844;-3.210;2023-07-13T00:04:23;98884.98;;;11.49;100.00
45872;BME280;32333;55.844;-3.210;2023-07-13T00:06:52;98888.65;;;10.75;100.00
45872;BME280;32333;55.844;-3.210;2023-07-13T00:09:21;98893.19;;;11.30;100.00
45872;BME280;32333;55.844;-3.210;2023-07-13T00:11:52;98892.65;;;11.15;100.00
45872;BME280;32333;55.844;-3.210;2023-07-13T00:14:36;98898.30;;;10.85;100.00
45872;BME280;32333;55.844;-3.210;2023-07-13T00:17:03;98898.34;;;11.41;100.00
45872;BME280;32333;55.844;-3.210;2023-07-13T00:19:30;98897.69;;;10.44;100.00
45872;BME280;32333;55.844;-3.210;2023-07-13T00:21:57;98897.25;;;11.07;100.00
45872;BME280;32333;55.844;-3.210;2023-07-13T00:24:25;98902.53;;;10.48;100.00
45872;BME280;32333;55.844;-3.210;2023-07-13T00:26:52;98903.06;;;11.04;100.00
45872;BME280;32333;55.844;-3.210;2023-07-13T00:29:19;98904.90;;;10.65;100.00
45872;BME280;32333;55.844;-3.210;2023-07-13T00:31:47;98900.87;;;10.97;100.00
45872;BME280;32333;55.844;-3.210;2023-07-13T00:34:15;98904.23;;;11.18;100.00
45872;BME280;32333;55.844;-3.210;2023-07-13T00:36:42;98905.79;;;11.67;100.00
45872;BME280;32333;55.844;-3.210;2023-07-13T00:39:09;98906.36;;;11.39;100.00
45872;BME280;32333;55.844;-3.210;2023-07-13T00:41:36;98910.22;;;11.34;100.00
45872;BME280;32333;55.844;-3.210;2023-07-13T00:44:35;98914.03;;;11.19;100.00
45872;BME280;32333;55.844;-3.210;2023-07-13T00:47:02;98909.19;;;12.00;100.00
45872;BME280;32333;55.844;-3.210;2023-07-13T00:49:31;98914.20;;;11.83;100.00
45872;BME280;32333;55.844;-3.210;2023-07-13T00:52:03;98913.15;;;11.29;100.00
45872;BME280;32333;55.844;-3.210;2023-07-13T00:54:34;98917.72;;;11.08;100.00
45872;BME280;32333;55.844;-3.210;2023-07-13T00:57:05;98914.67;;;11.21;100.00
45872;BME280;32333;55.844;-3.210;2023-07-13T00:59:34;98921.72;;;10.91;100.00
45872;BME280;32333;55.844;-3.210;2023-07-13T01:02:04;98919.80;;;10.47;100.00
45872;BME280;32333;55.844;-3.210;2023-07-13T01:04:32;98921.08;;;10.33;100.00
45872;BME280;32333;55.844;-3.210;2023-07-13T01:07:00;98925.35;;;11.38;100.00
45872;BME280;32333;55.844;-3.210;2023-07-13T01:09:27;98923.85;;;10.48;100.00
45872;BME280;32333;55.844;-3.210;2023-07-13T01:11:54;98929.86;;;11.69;100.00
45872;BME280;32333;55.844;-3.210;2023-07-13T01:14:35;98931.85;;;11.14;100.00
45872;BME280;32333;55.844;-3.210;2023-07-13T01:17:02;98929.11;;;11.46;100.00
45872;BME280;32333;55.844;-3.210;2023-07-13T01:19:35;98927.69;;;11.17;100.00
45872;BME280;32333;55.844;-3.210;2023-07-13T01:22:04;98927.22;;;11.50;100.00
45872;BME280;32333;55.844;-3.210;2023-07-13T01:24:33;98925.41;;;11.31;100.00
45872;BME280;32333;55.844;-3.210;2023-07-13T01:27:00;98928.85;;;11.41;100.00
45872;BME280;32333;55.844;-3.210;2023-07-13T01:29:27;98929.77;;;11.46;100.00
45872;BME280;32333;55.844;-3.210;2023-07-13T01:31:56;98929.31;;;10.54;100.00
45872;BME280;32333;55.844;-3.210;2023-07-13T01:34:23;98932.52;;;10.89;100.00
45872;BME280;32333;55.844;-3.210;2023-07-13T01:36:50;98929.99;;;11.23;100.00
45872;BME280;32333;55.844;-3.210;2023-07-13T01:39:17;98930.77;;;10.66;100.00
45872;BME280;32333;55.844;-3.210;2023-07-13T01:41:45;98929.58;;;11.28;100.00
45872;BME280;32333;55.844;-3.210;2023-07-13T01:44:35;98931.83;;;11.74;100.00
45872;BME280;32333;55.844;-3.210;2023-07-13T01:47:03;98930.13;;;11.68;100.00
45872;BME280;32333;55.844;-3.210;2023-07-13T01:49:30;98929.35;;;10.24;100.00
45872;BME280;32333;55.844;-3.210;2023-07-13T01:51:59;98933.36;;;10.76;100.00
45872;BME280;32333;55.844;-3.210;2023-07-13T01:54:26;98927.88;;;10.29;100.00
45872;BME280;32333;55.844;-3.210;2023-07-13T01:56:53;98927.27;;;10.37;100.00
45872;BME280;32333;55.844;-3.210;2023-07-13T01:59:22;98927.20;;;9.71;100.00
45872;BME280;32333;55.844;-3.210;2023-07-13T02:01:49;98927.23;;;9.81;100.00
45872;BME280;32333;55.844;-3.210;2023-07-13T02:04:16;98925.98;;;10.12;100.00
45872;BME280;32333;55.844;-3.210;2023-07-13T02:06:43;98927.70;;;10.02;100.00
45872;BME280;32333;55.844;-3.210;2023-07-13T02:09:11;98924.26;;;9.87;100.00
45872;BME280;32333;55.844;-3.210;2023-07-13T02:11:38;98925.20;;;9.89;100.00
45872;BME280;32333;55.844;-3.210;2023-07-13T02:14:36;98923.59;;;9.83;100.00
45872;BME280;32333;55.844;-3.210;2023-07-13T02:17:03;98921.75;;;9.98;100.00
45872;BME280;32333;55.844;-3.210;2023-07-13T02:19:31;98913.33;;;10.53;100.00
45872;BME280;32333;55.844;-3.210;2023-07-13T02:21:59;98914.45;;;10.87;100.00
45872;BME280;32333;55.844;-3.210;2023-07-13T02:24:27;98920.12;;;10.72;100.00
45872;BME280;32333;55.844;-3.210;2023-07-13T02:26:54;98921.42;;;10.45;100.00
45872;BME280;32333;55.844;-3.210;2023-07-13T02:29:22;98919.49;;;10.38;100.00
45872;BME280;32333;55.844;-3.210;2023-07-13T02:31:50;98926.74;;;10.67;100.00
45872;BME280;32333;55.844;-3.210;2023-07-13T02:34:17;98931.90;;;10.21;100.00
45872;BME280;32333;55.844;-3.210;2023-07-13T02:36:44;98930.37;;;10.40;100.00
45872;BME280;32333;55.844;-3.210;2023-07-13T02:39:13;98927.25;;;10.90;100.00
45872;BME280;32333;55.844;-3.210;2023-07-13T02:41:40;98929.78;;;10.00;100.00
45872;BME280;32333;55.844;-3.210;2023-07-13T02:44:35;98930.41;;;9.41;100.00
45872;BME280;32333;55.844;-3.210;2023-07-13T02:47:02;98931.05;;;10.09;100.00
45872;BME280;32333;55.844;-3.210;2023-07-13T02:49:30;98930.86;;;9.62;100.00
45872;BME280;32333;55.844;-3.210;2023-07-13T02:51:58;98933.86;;;9.83;100.00
45872;BME280;32333;55.844;-3.210;2023-07-13T02:54:25;98931.95;;;9.52;100.00
45872;BME280;32333;55.844;-3.210;2023-07-13T02:56:53;98934.40;;;9.75;100.00
45872;BME280;32333;55.844;-3.210;2023-07-13T02:59:20;98935.54;;;10.00;100.00
45872;BME280;32333;55.844;-3.210;2023-07-13T03:01:47;98938.65;;;9.61;100.00
45872;BME280;32333;55.844;-3.210;2023-07-13T03:04:14;98938.85;;;10.03;100.00
45872;BME280;32333;55.844;-3.210;2023-07-13T03:06:42;98933.81;;;9.75;100.00
45872;BME280;32333;55.844;-3.210;2023-07-13T03:09:10;98931.65;;;10.10;100.00
45872;BME280;32333;55.844;-3.210;2023-07-13T03:11:37;98933.72;;;10.37;100.00
45872;BME280;32333;55.844;-3.210;2023-07-13T03:14:37;98939.57;;;11.00;100.00
45872;BME280;32333;55.844;-3.210;2023-07-13T03:17:04;98936.74;;;10.36;100.00
45872;BME280;32333;55.844;-3.210;2023-07-13T03:19:31;98938.99;;;10.11;100.00
45872;BME280;32333;55.844;-3.210;2023-07-13T03:21:59;98937.18;;;10.18;100.00
45872;BME280;32333;55.844;-3.210;2023-07-13T03:24:27;98943.66;;;10.54;100.00
45872;BME280;32333;55.844;-3.210;2023-07-13T03:26:54;98944.89;;;9.37;100.00
45872;BME280;32333;55.844;-3.210;2023-07-13T03:29:22;98946.20;;;8.86;100.00
45872;BME280;32333;55.844;-3.210;2023-07-13T03:31:50;98945.72;;;9.11;100.00
45872;BME280;32333;55.844;-3.210;2023-07-13T03:34:17;98944.23;;;10.07;100.00
45872;BME280;32333;55.844;-3.210;2023-07-13T03:36:44;98943.37;;;9.99;100.00
45872;BME280;32333;55.844;-3.210;2023-07-13T03:39:12;98948.83;;;9.33;100.00
45872;BME280;32333;55.844;-3.210;2023-07-13T03:41:40;98950.07;;;9.86;100.00
45872;BME280;32333;55.844;-3.210;2023-07-13T03:44:36;98952.28;;;9.53;100.00
45872;BME280;32333;55.844;-3.210;2023-07-13T03:47:04;98953.15;;;10.06;100.00
45872;BME280;32333;55.844;-3.210;2023-07-13T03:49:31;98954.05;;;9.95;100.00
45872;BME280;32333;55.844;-3.210;2023-07-13T03:52:00;98961.04;;;9.90;100.00
45872;BME280;32333;55.844;-3.210;2023-07-13T03:54:27;98964.09;;;9.83;100.00
45872;BME280;32333;55.844;-3.210;2023-07-13T03:56:54;98967.30;;;9.14;100.00
45872;BME280;32333;55.844;-3.210;2023-07-13T03:59:23;98969.44;;;10.02;100.00
45872;BME280;32333;55.844;-3.210;2023-07-13T04:01:50;98972.52;;;9.17;100.00
45872;BME280;32333;55.844;-3.210;2023-07-13T04:04:17;98974.19;;;9.11;100.00
45872;BME280;32333;55.844;-3.210;2023-07-13T04:06:44;98975.35;;;9.26;100.00
45872;BME280;32333;55.844;-3.210;2023-07-13T04:09:12;98979.94;;;9.40;100.00
45872;BME280;32333;55.844;-3.210;2023-07-13T04:11:39;98982.44;;;9.67;100.00
45872;BME280;32333;55.844;-3.210;2023-07-13T04:14:35;98982.83;;;9.36;100.00
45872;BME280;32333;55.844;-3.210;2023-07-13T04:17:03;98985.97;;;9.70;100.00
45872;BME280;32333;55.844;-3.210;2023-07-13T04:19:31;98990.77;;;9.65;100.00
45872;BME280;32333;55.844;-3.210;2023-07-13T04:21:59;98991.56;;;9.95;100.00
45872;BME280;32333;55.844;-3.210;2023-07-13T04:24:27;98992.71;;;9.31;100.00
45872;BME280;32333;55.844;-3.210;2023-07-13T04:26:54;98995.20;;;9.49;100.00
45872;BME280;32333;55.844;-3.210;2023-07-13T04:29:22;98996.62;;;9.24;100.00
45872;BME280;32333;55.844;-3.210;2023-07-13T04:31:49;99000.94;;;8.83;100.00
45872;BME280;32333;55.844;-3.210;2023-07-13T04:34:17;98999.75;;;9.34;100.00
45872;BME280;32333;55.844;-3.210;2023-07-13T04:36:44;98995.93;;;10.78;100.00
45872;BME280;32333;55.844;-3.210;2023-07-13T04:39:12;98994.40;;;10.87;100.00
45872;BME280;32333;55.844;-3.210;2023-07-13T04:41:39;99000.37;;;11.23;100.00
45872;BME280;32333;55.844;-3.210;2023-07-13T04:44:35;98997.09;;;12.28;100.00
45872;BME280;32333;55.844;-3.210;2023-07-13T04:47:03;98991.74;;;12.34;100.00
45872;BME280;32333;55.844;-3.210;2023-07-13T04:49:31;98994.94;;;12.35;100.00
45872;BME280;32333;55.844;-3.210;2023-07-13T04:51:59;98988.88;;;13.35;100.00
45872;BME280;32333;55.844;-3.210;2023-07-13T04:54:26;98987.79;;;13.12;100.00
45872;BME280;32333;55.844;-3.210;2023-07-13T04:56:53;98986.36;;;12.96;100.00
45872;BME280;32333;55.844;-3.210;2023-07-13T04:59:22;98991.00;;;13.38;100.00
45872;BME280;32333;55.844;-3.210;2023-07-13T05:01:49;98993.77;;;11.92;100.00
45872;BME280;32333;55.844;-3.210;2023-07-13T05:04:16;98994.43;;;12.76;100.00
45872;BME280;32333;55.844;-3.210;2023-07-13T05:06:43;98992.79;;;13.15;100.00
45872;BME280;32333;55.844;-3.210;2023-07-13T05:09:11;98998.82;;;13.90;100.00
45872;BME280;32333;55.844;-3.210;2023-07-13T05:11:38;98996.56;;;13.09;100.00
45872;BME280;32333;55.844;-3.210;2023-07-13T05:14:35;98999.30;;;13.34;100.00
45872;BME280;32333;55.844;-3.210;2023-07-13T05:17:04;99004.84;;;12.36;100.00
45872;BME280;32333;55.844;-3.210;2023-07-13T05:19:32;99004.83;;;11.91;100.00
45872;BME280;32333;55.844;-3.210;2023-07-13T05:22:00;99002.27;;;13.15;100.00
45872;BME280;32333;55.844;-3.210;2023-07-13T05:24:29;99004.51;;;12.51;100.00
45872;BME280;32333;55.844;-3.210;2023-07-13T05:26:58;99005.50;;;12.88;100.00
45872;BME280;32333;55.844;-3.210;2023-07-13T05:29:25;99007.68;;;12.74;100.00
45872;BME280;32333;55.844;-3.210;2023-07-13T05:31:52;99005.61;;;12.34;100.00
45872;BME280;32333;55.844;-3.210;2023-07-13T05:34:21;99005.04;;;12.43;100.00
45872;BME280;32333;55.844;-3.210;2023-07-13T05:36:49;99010.13;;;11.87;100.00
45872;BME280;32333;55.844;-3.210;2023-07-13T05:39:16;99010.61;;;12.05;100.00
45872;BME280;32333;55.844;-3.210;2023-07-13T05:41:45;99010.76;;;11.20;100.00
45872;BME280;32333;55.844;-3.210;2023-07-13T05:44:35;99010.79;;;10.89;100.00
45872;BME280;32333;55.844;-3.210;2023-07-13T05:47:03;99010.95;;;10.58;100.00
45872;BME280;32333;55.844;-3.210;2023-07-13T05:49:31;99023.07;;;10.84;100.00
45872;BME280;32333;55.844;-3.210;2023-07-13T05:51:58;99021.89;;;10.46;100.00
45872;BME280;32333;55.844;-3.210;2023-07-13T05:54:27;99024.22;;;11.06;100.00
45872;BME280;32333;55.844;-3.210;2023-07-13T05:56:54;99030.93;;;10.60;100.00
45872;BME280;32333;55.844;-3.210;2023-07-13T05:59:22;99035.38;;;11.03;100.00
45872;BME280;32333;55.844;-3.210;2023-07-13T06:01:49;99037.55;;;10.47;100.00
45872;BME280;32333;55.844;-3.210;2023-07-13T06:04:17;99041.91;;;10.85;100.00
45872;BME280;32333;55.844;-3.210;2023-07-13T06:06:45;99040.40;;;11.39;100.00
45872;BME280;32333;55.844;-3.210;2023-07-13T06:09:12;99041.09;;;10.98;100.00
45872;BME280;32333;55.844;-3.210;2023-07-13T06:11:39;99037.89;;;11.24;100.00
45872;BME280;32333;55.844;-3.210;2023-07-13T06:14:36;99038.45;;;11.28;100.00
45872;BME280;32333;55.844;-3.210;2023-07-13T06:17:03;99041.55;;;11.25;100.00
45872;BME280;32333;55.844;-3.210;2023-07-13T06:19:31;99046.40;;;11.92;100.00
45872;BME280;32333;55.844;-3.210;2023-07-13T06:21:59;99049.88;;;11.93;100.00
45872;BME280;32333;55.844;-3.210;2023-07-13T06:24:26;99049.11;;;10.43;100.00
45872;BME280;32333;55.844;-3.210;2023-07-13T06:26:54;99048.64;;;11.64;100.00
45872;BME280;32333;55.844;-3.210;2023-07-13T06:29:22;99050.55;;;10.15;100.00
45872;BME280;32333;55.844;-3.210;2023-07-13T06:31:49;99052.19;;;10.50;100.00
45872;BME280;32333;55.844;-3.210;2023-07-13T06:34:17;99053.37;;;10.53;100.00
45872;BME280;32333;55.844;-3.210;2023-07-13T06:36:45;99055.70;;;10.81;100.00
45872;BME280;32333;55.844;-3.210;2023-07-13T06:39:12;99062.97;;;10.80;100.00
45872;BME280;32333;55.844;-3.210;2023-07-13T06:41:39;99066.06;;;11.11;100.00
45872;BME280;32333;55.844;-3.210;2023-07-13T06:44:35;99066.86;;;11.15;100.00
45872;BME280;32333;55.844;-3.210;2023-07-13T06:47:02;99069.12;;;11.84;100.00
45872;BME280;32333;55.844;-3.210;2023-07-13T06:49:30;99071.14;;;11.34;100.00
45872;BME280;32333;55.844;-3.210;2023-07-13T06:51:58;99070.81;;;11.20;100.00
45872;BME280;32333;55.844;-3.210;2023-07-13T06:54:26;99070.15;;;11.62;100.00
45872;BME280;32333;55.844;-3.210;2023-07-13T06:56:53;99076.06;;;12.01;100.00
45872;BME280;32333;55.844;-3.210;2023-07-13T06:59:21;99075.39;;;11.90;100.00
45872;BME280;32333;55.844;-3.210;2023-07-13T07:01:48;99075.26;;;12.82;100.00
45872;BME280;32333;55.844;-3.210;2023-07-13T07:04:16;99076.27;;;12.48;100.00
45872;BME280;32333;55.844;-3.210;2023-07-13T07:06:43;99071.66;;;13.45;100.00
45872;BME280;32333;55.844;-3.210;2023-07-13T07:09:10;99073.90;;;12.75;100.00
45872;BME280;32333;55.844;-3.210;2023-07-13T07:11:37;99074.93;;;12.93;100.00
45872;BME280;32333;55.844;-3.210;2023-07-13T07:14:35;99072.50;;;12.98;100.00
45872;BME280;32333;55.844;-3.210;2023-07-13T07:17:02;99074.31;;;12.91;100.00
45872;BME280;32333;55.844;-3.210;2023-07-13T07:19:30;99072.36;;;13.39;100.00
45872;BME280;32333;55.844;-3.210;2023-07-13T07:21:58;99075.30;;;13.19;100.00
45872;BME280;32333;55.844;-3.210;2023-07-13T07:24:26;99082.94;;;12.78;100.00
45872;BME280;32333;55.844;-3.210;2023-07-13T07:26:53;99077.76;;;12.97;100.00
45872;BME280;32333;55.844;-3.210;2023-07-13T07:29:22;99076.59;;;14.45;100.00
45872;BME280;32333;55.844;-3.210;2023-07-13T07:31:49;99074.58;;;14.37;100.00
45872;BME280;32333;55.844;-3.210;2023-07-13T07:34:16;99076.37;;;12.95;100.00
45872;BME280;32333;55.844;-3.210;2023-07-13T07:36:44;99077.33;;;13.58;100.00
45872;BME280;32333;55.844;-3.210;2023-07-13T07:39:12;99080.20;;;13.20;100.00
45872;BME280;32333;55.844;-3.210;2023-07-13T07:41:39;99078.33;;;12.84;100.00
45872;BME280;32333;55.844;-3.210;2023-07-13T07:44:35;99076.26;;;13.80;100.00
45872;BME280;32333;55.844;-3.210;2023-07-13T07:47:04;99075.89;;;13.90;100.00
45872;BME280;32333;55.844;-3.210;2023-07-13T07:49:31;99069.80;;;14.11;100.00
45872;BME280;32333;55.844;-3.210;2023-07-13T07:51:58;99069.71;;;14.23;100.00
45872;BME280;32333;55.844;-3.210;2023-07-13T07:54:26;99073.84;;;14.50;100.00
45872;BME280;32333;55.844;-3.210;2023-07-13T07:56:53;99070.66;;;14.77;100.00
45872;BME280;32333;55.844;-3.210;2023-07-13T07:59:21;99076.68;;;14.23;100.00
45872;BME280;32333;55.844;-3.210;2023-07-13T08:01:48;99078.29;;;14.15;100.00
45872;BME280;32333;55.844;-3.210;2023-07-13T08:04:15;99076.67;;;14.83;100.00
45872;BME280;32333;55.844;-3.210;2023-07-13T08:06:43;99076.54;;;14.41;100.00
45872;BME280;32333;55.844;-3.210;2023-07-13T08:09:10;99077.78;;;14.88;100.00
45872;BME280;32333;55.844;-3.210;2023-07-13T08:11:38;99079.44;;;14.50;100.00
45872;BME280;32333;55.844;-3.210;2023-07-13T08:14:35;99076.46;;;14.27;100.00
45872;BME280;32333;55.844;-3.210;2023-07-13T08:17:03;99087.26;;;13.39;100.00
45872;BME280;32333;55.844;-3.210;2023-07-13T08:19:30;99086.87;;;14.26;100.00
45872;BME280;32333;55.844;-3.210;2023-07-13T08:21:58;99083.64;;;14.20;100.00
45872;BME280;32333;55.844;-3.210;2023-07-13T08:24:25;99080.76;;;14.31;100.00
45872;BME280;32333;55.844;-3.210;2023-07-13T08:26:53;99076.30;;;15.02;100.00
45872;BME280;32333;55.844;-3.210;2023-07-13T08:29:25;99078.37;;;13.41;100.00
45872;BME280;32333;55.844;-3.210;2023-07-13T08:31:53;99077.28;;;14.03;100.00
45872;BME280;32333;55.844;-3.210;2023-07-13T08:34:20;99077.04;;;14.53;100.00
45872;BME280;32333;55.844;-3.210;2023-07-13T08:36:47;99071.56;;;14.78;100.00
45872;BME280;32333;55.844;-3.210;2023-07-13T08:39:14;99076.56;;;15.02;100.00
45872;BME280;32333;55.844;-3.210;2023-07-13T08:41:44;99075.59;;;14.98;100.00
45872;BME280;32333;55.844;-3.210;2023-07-13T08:44:44;99077.33;;;16.13;100.00
45872;BME280;32333;55.844;-3.210;2023-07-13T08:47:15;99081.76;;;15.42;100.00
45872;BME280;32333;55.844;-3.210;2023-07-13T08:49:44;99086.13;;;13.99;100.00
45872;BME280;32333;55.844;-3.210;2023-07-13T08:52:16;99092.59;;;13.71;100.00
45872;BME280;32333;55.844;-3.210;2023-07-13T08:54:51;99094.91;;;14.51;100.00
45872;BME280;32333;55.844;-3.210;2023-07-13T08:57:21;99102.97;;;12.61;100.00
45872;BME280;32333;55.844;-3.210;2023-07-13T08:59:51;99095.09;;;13.45;100.00
45872;BME280;32333;55.844;-3.210;2023-07-13T09:02:26;99092.41;;;13.04;100.00
45872;BME280;32333;55.844;-3.210;2023-07-13T09:04:58;99091.37;;;13.49;100.00
45872;BME280;32333;55.844;-3.210;2023-07-13T09:07:34;99095.39;;;13.56;100.00
45872;BME280;32333;55.844;-3.210;2023-07-13T09:10:15;99091.82;;;13.51;100.00
45872;BME280;32333;55.844;-3.210;2023-07-13T09:14:42;99090.65;;;14.39;100.00
45872;BME280;32333;55.844;-3.210;2023-07-13T09:17:16;99090.79;;;15.34;100.00
45872;BME280;32333;55.844;-3.210;2023-07-13T09:19:49;99091.17;;;14.89;100.00
45872;BME280;32333;55.844;-3.210;2023-07-13T09:22:20;99083.14;;;17.10;100.00
45872;BME280;32333;55.844;-3.210;2023-07-13T09:24:55;99081.97;;;17.59;100.00
45872;BME280;32333;55.844;-3.210;2023-07-13T09:27:31;99079.32;;;17.35;100.00
45872;BME280;32333;55.844;-3.210;2023-07-13T09:30:23;99080.64;;;17.32;100.00
45872;BME280;32333;55.844;-3.210;2023-07-13T09:32:53;99079.33;;;17.79;100.00
45872;BME280;32333;55.844;-3.210;2023-07-13T09:35:25;99086.50;;;16.69;100.00
45872;BME280;32333;55.844;-3.210;2023-07-13T09:37:57;99080.83;;;16.81;100.00
45872;BME280;32333;55.844;-3.210;2023-07-13T09:40:40;99082.10;;;17.44;100.00
45872;BME280;32333;55.844;-3.210;2023-07-13T09:44:37;99077.45;;;16.89;100.00
45872;BME280;32333;55.844;-3.210;2023-07-13T09:47:16;99083.37;;;15.59;100.00
45872;BME280;32333;55.844;-3.210;2023-07-13T09:49:44;99088.80;;;17.28;100.00
45872;BME280;32333;55.844;-3.210;2023-07-13T09:52:14;99092.11;;;16.82;100.00
45872;BME280;32333;55.844;-3.210;2023-07-13T09:54:45;99092.67;;;15.87;100.00
45872;BME280;32333;55.844;-3.210;2023-07-13T09:57:16;99091.93;;;16.95;100.00
45872;BME280;32333;55.844;-3.210;2023-07-13T09:59:45;99094.53;;;16.77;100.00
45872;BME280;32333;55.844;-3.210;2023-07-13T10:02:32;99100.01;;;16.18;100.00
45872;BME280;32333;55.844;-3.210;2023-07-13T10:05:02;99103.79;;;17.20;100.00
45872;BME280;32333;55.844;-3.210;2023-07-13T10:07:31;99106.62;;;16.81;100.00
45872;BME280;32333;55.844;-3.210;2023-07-13T10:10:00;99109.74;;;16.47;100.00
45872;BME280;32333;55.844;-3.210;2023-07-13T10:14:35;99111.59;;;16.80;100.00
45872;BME280;32333;55.844;-3.210;2023-07-13T10:17:04;99112.22;;;16.01;100.00
45872;BME280;32333;55.844;-3.210;2023-07-13T10:19:36;99111.49;;;16.44;100.00
45872;BME280;32333;55.844;-3.210;2023-07-13T10:22:16;99114.90;;;16.36;100.00
45872;BME280;32333;55.844;-3.210;2023-07-13T10:24:49;99118.64;;;16.04;100.00
45872;BME280;32333;55.844;-3.210;2023-07-13T10:27:19;99116.44;;;16.54;100.00
45872;BME280;32333;55.844;-3.210;2023-07-13T10:29:52;99116.55;;;16.80;100.00
45872;BME280;32333;55.844;-3.210;2023-07-13T10:32:23;99118.49;;;16.76;100.00
45872;BME280;32333;55.844;-3.210;2023-07-13T10:34:51;99113.91;;;16.41;100.00
45872;BME280;32333;55.844;-3.210;2023-07-13T10:37:24;99112.57;;;17.09;100.00
45872;BME280;32333;55.844;-3.210;2023-07-13T10:39:56;99114.08;;;17.17;100.00
45872;BME280;32333;55.844;-3.210;2023-07-13T10:44:35;99117.17;;;17.31;100.00
45872;BME280;32333;55.844;-3.210;2023-07-13T10:47:06;99121.41;;;15.85;100.00
45872;BME280;32333;55.844;-3.210;2023-07-13T10:49:35;99130.72;;;15.50;100.00
45872;BME280;32333;55.844;-3.210;2023-07-13T10:52:04;99136.76;;;14.98;100.00
45872;BME280;32333;55.844;-3.210;2023-07-13T10:54:33;99138.13;;;16.63;100.00
45872;BME280;32333;55.844;-3.210;2023-07-13T10:57:16;99135.37;;;15.33;100.00
45872;BME280;32333;55.844;-3.210;2023-07-13T10:59:46;99134.27;;;15.21;100.00
45872;BME280;32333;55.844;-3.210;2023-07-13T11:02:23;99132.24;;;16.44;100.00
45872;BME280;32333;55.844;-3.210;2023-07-13T11:04:53;99137.74;;;16.15;100.00
45872;BME280;32333;55.844;-3.210;2023-07-13T11:07:25;99132.40;;;15.64;100.00
45872;BME280;32333;55.844;-3.210;2023-07-13T11:09:55;99127.13;;;15.12;100.00
45872;BME280;32333;55.844;-3.210;2023-07-13T11:14:37;99126.33;;;16.66;100.00
45872;BME280;32333;55.844;-3.210;2023-07-13T11:17:36;99126.60;;;17.20;100.00
45872;BME280;32333;55.844;-3.210;2023-07-13T11:20:23;99124.89;;;16.74;100.00
45872;BME280;32333;55.844;-3.210;2023-07-13T11:22:52;99122.60;;;16.39;100.00
45872;BME280;32333;55.844;-3.210;2023-07-13T11:25:28;99120.98;;;16.42;100.00
45872;BME280;32333;55.844;-3.210;2023-07-13T11:28:20;99116.85;;;17.21;100.00
45872;BME280;32333;55.844;-3.210;2023-07-13T11:30:59;99112.72;;;17.94;100.00
45872;BME280;32333;55.844;-3.210;2023-07-13T11:33:45;99111.20;;;18.10;100.00
45872;BME280;32333;55.844;-3.210;2023-07-13T11:36:17;99104.12;;;17.62;100.00
45872;BME280;32333;55.844;-3.210;2023-07-13T11:38:49;99105.02;;;17.91;100.00
45872;BME280;32333;55.844;-3.210;2023-07-13T11:41:21;99113.44;;;17.40;100.00
45872;BME280;32333;55.844;-3.210;2023-07-13T11:44:35;99124.68;;;17.34;100.00
45872;BME280;32333;55.844;-3.210;2023-07-13T11:47:10;99122.26;;;17.19;100.00
45872;BME280;32333;55.844;-3.210;2023-07-13T11:49:43;99115.71;;;17.30;100.00
45872;BME280;32333;55.844;-3.210;2023-07-13T11:52:12;99121.84;;;17.18;100.00
45872;BME280;32333;55.844;-3.210;2023-07-13T11:54:48;99117.75;;;17.08;100.00
45872;BME280;32333;55.844;-3.210;2023-07-13T11:57:23;99119.14;;;17.49;100.00
45872;BME280;32333;55.844;-3.210;2023-07-13T11:59:52;99108.00;;;17.63;100.00
45872;BME280;32333;55.844;-3.210;2023-07-13T12:02:29;99107.61;;;17.74;100.00
45872;BME280;32333;55.844;-3.210;2023-07-13T12:04:59;99107.51;;;17.93;100.00
45872;BME280;32333;55.844;-3.210;2023-07-13T12:07:30;99109.73;;;18.71;100.00
45872;BME280;32333;55.844;-3.210;2023-07-13T12:10:01;99110.50;;;18.57;100.00
45872;BME280;32333;55.844;-3.210;2023-07-13T12:14:36;99117.32;;;17.30;100.00
45872;BME280;32333;55.844;-3.210;2023-07-13T12:17:09;99110.68;;;17.02;100.00
45872;BME280;32333;55.844;-3.210;2023-07-13T12:19:38;99115.89;;;16.88;100.00
45872;BME280;32333;55.844;-3.210;2023-07-13T12:22:11;99111.72;;;16.60;100.00
45872;BME280;32333;55.844;-3.210;2023-07-13T12:24:40;99108.14;;;14.98;100.00
45872;BME280;32333;55.844;-3.210;2023-07-13T12:27:20;99104.13;;;15.65;100.00
45872;BME280;32333;55.844;-3.210;2023-07-13T12:29:51;99110.78;;;15.91;100.00
45872;BME280;32333;55.844;-3.210;2023-07-13T12:32:18;99110.09;;;15.85;100.00
45872;BME280;32333;55.844;-3.210;2023-07-13T12:34:53;99112.98;;;16.73;100.00
45872;BME280;32333;55.844;-3.210;2023-07-13T12:37:23;99104.78;;;16.74;100.00
45872;BME280;32333;55.844;-3.210;2023-07-13T12:39:51;99093.98;;;16.10;100.00
45872;BME280;32333;55.844;-3.210;2023-07-13T12:44:40;99116.61;;;17.70;100.00
45872;BME280;32333;55.844;-3.210;2023-07-13T12:47:13;99122.78;;;17.24;100.00
45872;BME280;32333;55.844;-3.210;2023-07-13T12:49:43;99124.13;;;17.23;100.00
45872;BME280;32333;55.844;-3.210;2023-07-13T12:52:17;99131.81;;;16.73;100.00
45872;BME280;32333;55.844;-3.210;2023-07-13T12:54:53;99124.48;;;17.36;100.00
45872;BME280;32333;55.844;-3.210;2023-07-13T12:57:20;99125.67;;;17.46;100.00
45872;BME280;32333;55.844;-3.210;2023-07-13T12:59:51;99125.64;;;16.53;100.00
45872;BME280;32333;55.844;-3.210;2023-07-13T13:02:28;99127.27;;;17.20;100.00
45872;BME280;32333;55.844;-3.210;2023-07-13T13:04:57;99120.57;;;16.13;100.00
45872;BME280;32333;55.844;-3.210;2023-07-13T13:07:26;99132.80;;;15.39;100.00
45872;BME280;32333;55.844;-3.210;2023-07-13T13:09:53;99133.37;;;15.84;100.00
45872;BME280;32333;55.844;-3.210;2023-07-13T13:14:35;99131.25;;;16.21;100.00
45872;BME280;32333;55.844;-3.210;2023-07-13T13:17:04;99124.86;;;15.85;100.00